sensor_id;sensor_type;location;lat;lon;timestamp;pressure;altitude;pressure_sealevel;temperature
72278;BMP280;61204;49.980;8.358;2022-07-12T00:02:17;101460.81;;;23.40
72278;BMP280;61204;49.980;8.358;2022-07-12T00:04:42;101449.66;;;23.42
72278;BMP280;61204;49.980;8.358;2022-07-12T00:07:08;101453.91;;;23.43
72278;BMP280;61204;49.980;8.358;2022-07-12T00:09:34;101454.75;;;23.47
72278;BMP280;61204;49.980;8.358;2022-07-12T00:11:59;101462.53;;;23.51
72278;BMP280;61204;49.980;8.358;2022-07-12T00:14:25;101459.84;;;23.55
72278;BMP280;61204;49.980;8.358;2022-07-12T00:16:51;101455.75;;;23.58
72278;BMP280;61204;49.980;8.358;2022-07-12T00:19:17;101467.06;;;23.62
72278;BMP280;61204;49.980;8.358;2022-07-12T00:21:43;101462.06;;;23.59
72278;BMP280;61204;49.980;8.358;2022-07-12T00:24:11;101457.66;;;23.52
72278;BMP280;61204;49.980;8.358;2022-07-12T00:26:37;101455.41;;;23.46
72278;BMP280;61204;49.980;8.358;2022-07-12T00:29:02;101453.13;;;23.40
72278;BMP280;61204;49.980;8.358;2022-07-12T00:31:28;101449.53;;;23.38
72278;BMP280;61204;49.980;8.358;2022-07-12T00:33:53;101453.63;;;23.33
72278;BMP280;61204;49.980;8.358;2022-07-12T00:36:19;101451.41;;;23.29
72278;BMP280;61204;49.980;8.358;2022-07-12T00:38:46;101447.91;;;23.29
72278;BMP280;61204;49.980;8.358;2022-07-12T00:41:14;101445.94;;;23.33
72278;BMP280;61204;49.980;8.358;2022-07-12T00:43:40;101445.28;;;23.35
72278;BMP280;61204;49.980;8.358;2022-07-12T00:46:07;101438.31;;;23.36
72278;BMP280;61204;49.980;8.358;2022-07-12T00:48:32;101445.34;;;23.37
72278;BMP280;61204;49.980;8.358;2022-07-12T00:51:00;101436.94;;;23.37
72278;BMP280;61204;49.980;8.358;2022-07-12T00:53:26;101435.53;;;23.38
72278;BMP280;61204;49.980;8.358;2022-07-12T00:55:54;101436.22;;;23.36
72278;BMP280;61204;49.980;8.358;2022-07-12T00:58:22;101443.13;;;23.33
72278;BMP280;61204;49.980;8.358;2022-07-12T01:00:50;101433.91;;;23.29
72278;BMP280;61204;49.980;8.358;2022-07-12T01:03:17;101438.06;;;23.28
72278;BMP280;61204;49.980;8.358;2022-07-12T01:05:44;101429.69;;;23.28
72278;BMP280;61204;49.980;8.358;2022-07-12T01:08:11;101431.88;;;23.31
72278;BMP280;61204;49.980;8.358;2022-07-12T01:10:40;101427.72;;;23.32
72278;BMP280;61204;49.980;8.358;2022-07-12T01:13:11;101429.56;;;23.24
72278;BMP280;61204;49.980;8.358;2022-07-12T01:15:37;101426.63;;;23.20
72278;BMP280;61204;49.980;8.358;2022-07-12T01:18:03;101421.03;;;23.20
72278;BMP280;61204;49.980;8.358;2022-07-12T01:20:30;101429.97;;;23.14
72278;BMP280;61204;49.980;8.358;2022-07-12T01:22:59;101431.16;;;23.07
72278;BMP280;61204;49.980;8.358;2022-07-12T01:25:26;101433.38;;;23.10
72278;BMP280;61204;49.980;8.358;2022-07-12T01:27:52;101427.09;;;23.12
72278;BMP280;61204;49.980;8.358;2022-07-12T01:30:19;101430.75;;;23.16
72278;BMP280;61204;49.980;8.358;2022-07-12T01:32:45;101429.38;;;23.17
72278;BMP280;61204;49.980;8.358;2022-07-12T01:35:11;101435.75;;;23.20
72278;BMP280;61204;49.980;8.358;2022-07-12T01:37:38;101426.63;;;23.20
72278;BMP280;61204;49.980;8.358;2022-07-12T01:40:11;101434.09;;;23.11
72278;BMP280;61204;49.980;8.358;2022-07-12T01:42:39;101434.03;;;23.09
72278;BMP280;61204;49.980;8.358;2022-07-12T01:45:07;101432.56;;;23.08
72278;BMP280;61204;49.980;8.358;2022-07-12T01:47:34;101433.97;;;23.07
72278;BMP280;61204;49.980;8.358;2022-07-12T01:50:02;101438.00;;;23.02
72278;BMP280;61204;49.980;8.358;2022-07-12T01:52:34;101430.34;;;23.02
72278;BMP280;61204;49.980;8.358;2022-07-12T01:55:04;101432.34;;;23.00
72278;BMP280;61204;49.980;8.358;2022-07-12T01:57:32;101430.84;;;22.97
72278;BMP280;61204;49.980;8.358;2022-07-12T02:00:00;101421.13;;;23.00
72278;BMP280;61204;49.980;8.358;2022-07-12T02:02:28;101422.44;;;22.97
72278;BMP280;61204;49.980;8.358;2022-07-12T02:04:55;101425.13;;;22.93
72278;BMP280;61204;49.980;8.358;2022-07-12T02:07:23;101436.19;;;22.89
72278;BMP280;61204;49.980;8.358;2022-07-12T02:09:50;101426.28;;;22.83
72278;BMP280;61204;49.980;8.358;2022-07-12T02:12:16;101424.78;;;22.80
72278;BMP280;61204;49.980;8.358;2022-07-12T02:14:42;101414.88;;;22.77
72278;BMP280;61204;49.980;8.358;2022-07-12T02:17:08;101416.31;;;22.78
72278;BMP280;61204;49.980;8.358;2022-07-12T02:19:33;101421.75;;;22.74
72278;BMP280;61204;49.980;8.358;2022-07-12T02:21:59;101412.78;;;22.78
72278;BMP280;61204;49.980;8.358;2022-07-12T02:24:24;101416.25;;;22.76
72278;BMP280;61204;49.980;8.358;2022-07-12T02:26:50;101409.63;;;22.66
72278;BMP280;61204;49.980;8.358;2022-07-12T02:29:15;101422.31;;;22.69
72278;BMP280;61204;49.980;8.358;2022-07-12T02:31:41;101423.81;;;22.72
72278;BMP280;61204;49.980;8.358;2022-07-12T02:34:07;101424.56;;;22.74
72278;BMP280;61204;49.980;8.358;2022-07-12T02:36:33;101429.53;;;22.76
72278;BMP280;61204;49.980;8.358;2022-07-12T02:39:03;101430.97;;;22.77
72278;BMP280;61204;49.980;8.358;2022-07-12T02:41:30;101432.91;;;22.72
72278;BMP280;61204;49.980;8.358;2022-07-12T02:43:57;101430.16;;;22.74
72278;BMP280;61204;49.980;8.358;2022-07-12T02:46:25;101430.75;;;22.71
72278;BMP280;61204;49.980;8.358;2022-07-12T02:48:51;101433.75;;;22.77
72278;BMP280;61204;49.980;8.358;2022-07-12T02:51:17;101435.00;;;22.72
72278;BMP280;61204;49.980;8.358;2022-07-12T02:53:43;101441.94;;;22.71
72278;BMP280;61204;49.980;8.358;2022-07-12T02:56:09;101444.69;;;22.69
72278;BMP280;61204;49.980;8.358;2022-07-12T02:58:37;101451.53;;;22.66
72278;BMP280;61204;49.980;8.358;2022-07-12T03:01:03;101447.38;;;22.67
72278;BMP280;61204;49.980;8.358;2022-07-12T03:03:29;101459.25;;;22.65
72278;BMP280;61204;49.980;8.358;2022-07-12T03:05:55;101447.34;;;22.65
72278;BMP280;61204;49.980;8.358;2022-07-12T03:08:21;101450.19;;;22.67
72278;BMP280;61204;49.980;8.358;2022-07-12T03:10:46;101448.75;;;22.66
72278;BMP280;61204;49.980;8.358;2022-07-12T03:13:12;101454.31;;;22.64
72278;BMP280;61204;49.980;8.358;2022-07-12T03:15:37;101466.22;;;22.66
72278;BMP280;61204;49.980;8.358;2022-07-12T03:18:03;101462.03;;;22.65
72278;BMP280;61204;49.980;8.358;2022-07-12T03:20:30;101470.81;;;22.56
72278;BMP280;61204;49.980;8.358;2022-07-12T03:22:56;101463.84;;;22.57
72278;BMP280;61204;49.980;8.358;2022-07-12T03:25:23;101472.38;;;22.61
72278;BMP280;61204;49.980;8.358;2022-07-12T03:27:51;101468.88;;;22.60
72278;BMP280;61204;49.980;8.358;2022-07-12T03:30:17;101463.31;;;22.62
72278;BMP280;61204;49.980;8.358;2022-07-12T03:32:43;101463.53;;;22.68
72278;BMP280;61204;49.980;8.358;2022-07-12T03:35:09;101465.63;;;22.68
72278;BMP280;61204;49.980;8.358;2022-07-12T03:37:42;101464.69;;;22.61
72278;BMP280;61204;49.980;8.358;2022-07-12T03:40:15;101464.13;;;22.65
72278;BMP280;61204;49.980;8.358;2022-07-12T03:42:43;101466.94;;;22.67
72278;BMP280;61204;49.980;8.358;2022-07-12T03:45:11;101467.41;;;22.59
72278;BMP280;61204;49.980;8.358;2022-07-12T03:47:38;101463.00;;;22.52
72278;BMP280;61204;49.980;8.358;2022-07-12T03:50:06;101472.28;;;22.59
72278;BMP280;61204;49.980;8.358;2022-07-12T03:52:36;101470.66;;;22.51
72278;BMP280;61204;49.980;8.358;2022-07-12T03:55:03;101477.56;;;22.48
72278;BMP280;61204;49.980;8.358;2022-07-12T03:57:30;101476.19;;;22.49
72278;BMP280;61204;49.980;8.358;2022-07-12T03:59:56;101470.38;;;22.43
72278;BMP280;61204;49.980;8.358;2022-07-12T04:02:23;101462.13;;;22.47
72278;BMP280;61204;49.980;8.358;2022-07-12T04:04:49;101464.19;;;22.45
72278;BMP280;61204;49.980;8.358;2022-07-12T04:07:16;101461.63;;;22.53
72278;BMP280;61204;49.980;8.358;2022-07-12T04:09:42;101458.72;;;22.49
72278;BMP280;61204;49.980;8.358;2022-07-12T04:12:08;101467.81;;;22.49
72278;BMP280;61204;49.980;8.358;2022-07-12T04:14:36;101469.63;;;22.41
72278;BMP280;61204;49.980;8.358;2022-07-12T04:17:03;101478.63;;;22.39
72278;BMP280;61204;49.980;8.358;2022-07-12T04:19:30;101471.63;;;22.38
72278;BMP280;61204;49.980;8.358;2022-07-12T04:21:59;101482.69;;;22.34
72278;BMP280;61204;49.980;8.358;2022-07-12T04:24:25;101470.66;;;22.30
72278;BMP280;61204;49.980;8.358;2022-07-12T04:26:51;101487.31;;;22.28
72278;BMP280;61204;49.980;8.358;2022-07-12T04:29:20;101475.34;;;22.25
72278;BMP280;61204;49.980;8.358;2022-07-12T04:31:47;101468.34;;;22.24
72278;BMP280;61204;49.980;8.358;2022-07-12T04:34:13;101479.03;;;22.30
72278;BMP280;61204;49.980;8.358;2022-07-12T04:36:43;101471.84;;;22.25
72278;BMP280;61204;49.980;8.358;2022-07-12T04:39:13;101484.47;;;22.26
72278;BMP280;61204;49.980;8.358;2022-07-12T04:41:39;101476.69;;;22.22
72278;BMP280;61204;49.980;8.358;2022-07-12T04:44:07;101471.09;;;22.22
72278;BMP280;61204;49.980;8.358;2022-07-12T04:46:33;101477.16;;;22.16
72278;BMP280;61204;49.980;8.358;2022-07-12T04:49:00;101479.81;;;22.12
72278;BMP280;61204;49.980;8.358;2022-07-12T04:51:25;101476.22;;;22.10
72278;BMP280;61204;49.980;8.358;2022-07-12T04:53:52;101480.25;;;22.05
72278;BMP280;61204;49.980;8.358;2022-07-12T04:56:17;101486.41;;;22.01
72278;BMP280;61204;49.980;8.358;2022-07-12T04:58:43;101484.19;;;21.98
72278;BMP280;61204;49.980;8.358;2022-07-12T05:01:09;101486.25;;;21.97
72278;BMP280;61204;49.980;8.358;2022-07-12T05:03:34;101482.75;;;21.97
72278;BMP280;61204;49.980;8.358;2022-07-12T05:06:00;101498.66;;;21.92
72278;BMP280;61204;49.980;8.358;2022-07-12T05:08:25;101496.72;;;21.97
72278;BMP280;61204;49.980;8.358;2022-07-12T05:10:51;101512.09;;;21.98
72278;BMP280;61204;49.980;8.358;2022-07-12T05:13:19;101509.16;;;21.94
72278;BMP280;61204;49.980;8.358;2022-07-12T05:15:45;101510.53;;;21.93
72278;BMP280;61204;49.980;8.358;2022-07-12T05:18:13;101512.75;;;21.96
72278;BMP280;61204;49.980;8.358;2022-07-12T05:20:38;101516.34;;;21.99
72278;BMP280;61204;49.980;8.358;2022-07-12T05:23:04;101516.47;;;22.03
72278;BMP280;61204;49.980;8.358;2022-07-12T05:25:29;101516.47;;;22.03
72278;BMP280;61204;49.980;8.358;2022-07-12T05:27:55;101524.84;;;22.03
72278;BMP280;61204;49.980;8.358;2022-07-12T05:30:20;101525.50;;;22.01
72278;BMP280;61204;49.980;8.358;2022-07-12T05:32:46;101527.50;;;21.99
72278;BMP280;61204;49.980;8.358;2022-07-12T05:35:12;101531.72;;;22.00
72278;BMP280;61204;49.980;8.358;2022-07-12T05:37:37;101536.03;;;22.03
72278;BMP280;61204;49.980;8.358;2022-07-12T05:40:03;101536.78;;;22.03
72278;BMP280;61204;49.980;8.358;2022-07-12T05:42:30;101542.50;;;22.07
72278;BMP280;61204;49.980;8.358;2022-07-12T05:44:55;101540.41;;;22.08
72278;BMP280;61204;49.980;8.358;2022-07-12T05:47:21;101542.41;;;22.05
72278;BMP280;61204;49.980;8.358;2022-07-12T05:49:46;101539.59;;;22.05
72278;BMP280;61204;49.980;8.358;2022-07-12T05:52:12;101539.97;;;21.96
72278;BMP280;61204;49.980;8.358;2022-07-12T05:54:56;101547.69;;;21.97
72278;BMP280;61204;49.980;8.358;2022-07-12T05:57:21;101538.66;;;21.99
72278;BMP280;61204;49.980;8.358;2022-07-12T05:59:47;101542.34;;;22.03
72278;BMP280;61204;49.980;8.358;2022-07-12T06:02:13;101547.38;;;22.07
72278;BMP280;61204;49.980;8.358;2022-07-12T06:04:38;101539.13;;;22.11
72278;BMP280;61204;49.980;8.358;2022-07-12T06:07:04;101544.19;;;22.16
72278;BMP280;61204;49.980;8.358;2022-07-12T06:09:30;101550.03;;;22.23
72278;BMP280;61204;49.980;8.358;2022-07-12T06:11:55;101544.47;;;22.25
72278;BMP280;61204;49.980;8.358;2022-07-12T06:14:21;101553.75;;;22.29
72278;BMP280;61204;49.980;8.358;2022-07-12T06:16:46;101548.31;;;22.33
72278;BMP280;61204;49.980;8.358;2022-07-12T06:19:12;101562.31;;;22.35
72278;BMP280;61204;49.980;8.358;2022-07-12T06:21:41;101568.84;;;22.42
72278;BMP280;61204;49.980;8.358;2022-07-12T06:24:06;101562.03;;;22.47
72278;BMP280;61204;49.980;8.358;2022-07-12T06:26:32;101561.59;;;22.55
72278;BMP280;61204;49.980;8.358;2022-07-12T06:28:58;101554.78;;;22.60
72278;BMP280;61204;49.980;8.358;2022-07-12T06:31:23;101559.88;;;22.65
72278;BMP280;61204;49.980;8.358;2022-07-12T06:33:50;101559.28;;;22.69
72278;BMP280;61204;49.980;8.358;2022-07-12T06:36:18;101560.78;;;22.72
72278;BMP280;61204;49.980;8.358;2022-07-12T06:38:44;101558.75;;;22.74
72278;BMP280;61204;49.980;8.358;2022-07-12T06:41:12;101570.75;;;22.77
72278;BMP280;61204;49.980;8.358;2022-07-12T06:43:38;101569.44;;;22.80
72278;BMP280;61204;49.980;8.358;2022-07-12T06:46:04;101569.59;;;22.84
72278;BMP280;61204;49.980;8.358;2022-07-12T06:48:30;101572.53;;;22.88
72278;BMP280;61204;49.980;8.358;2022-07-12T06:50:58;101577.47;;;22.90
72278;BMP280;61204;49.980;8.358;2022-07-12T06:53:26;101576.09;;;22.91
72278;BMP280;61204;49.980;8.358;2022-07-12T06:55:52;101572.59;;;22.90
72278;BMP280;61204;49.980;8.358;2022-07-12T06:58:17;101575.38;;;22.90
72278;BMP280;61204;49.980;8.358;2022-07-12T07:00:43;101577.53;;;22.92
72278;BMP280;61204;49.980;8.358;2022-07-12T07:03:08;101581.09;;;22.94
72278;BMP280;61204;49.980;8.358;2022-07-12T07:05:36;101572.84;;;22.98
72278;BMP280;61204;49.980;8.358;2022-07-12T07:08:02;101576.34;;;22.99
72278;BMP280;61204;49.980;8.358;2022-07-12T07:10:28;101584.16;;;23.02
72278;BMP280;61204;49.980;8.358;2022-07-12T07:12:54;101571.03;;;23.07
72278;BMP280;61204;49.980;8.358;2022-07-12T07:15:19;101571.09;;;23.09
72278;BMP280;61204;49.980;8.358;2022-07-12T07:17:45;101571.81;;;23.09
72278;BMP280;61204;49.980;8.358;2022-07-12T07:20:11;101576.03;;;23.10
72278;BMP280;61204;49.980;8.358;2022-07-12T07:22:38;101577.53;;;23.13
72278;BMP280;61204;49.980;8.358;2022-07-12T07:25:05;101586.06;;;23.17
72278;BMP280;61204;49.980;8.358;2022-07-12T07:27:31;101572.19;;;23.22
72278;BMP280;61204;49.980;8.358;2022-07-12T07:29:57;101582.72;;;23.23
72278;BMP280;61204;49.980;8.358;2022-07-12T07:32:41;101583.50;;;23.26
72278;BMP280;61204;49.980;8.358;2022-07-12T07:35:07;101586.25;;;23.24
72278;BMP280;61204;49.980;8.358;2022-07-12T07:37:34;101583.50;;;23.26
72278;BMP280;61204;49.980;8.358;2022-07-12T07:40:00;101584.22;;;23.26
72278;BMP280;61204;49.980;8.358;2022-07-12T07:42:26;101593.41;;;23.29
72278;BMP280;61204;49.980;8.358;2022-07-12T07:44:51;101601.94;;;23.33
72278;BMP280;61204;49.980;8.358;2022-07-12T07:47:18;101596.25;;;23.31
72278;BMP280;61204;49.980;8.358;2022-07-12T07:49:43;101582.22;;;23.29
72278;BMP280;61204;49.980;8.358;2022-07-12T07:52:09;101587.09;;;23.28
72278;BMP280;61204;49.980;8.358;2022-07-12T07:54:34;101589.31;;;23.32
72278;BMP280;61204;49.980;8.358;2022-07-12T07:57:00;101585.25;;;23.37
72278;BMP280;61204;49.980;8.358;2022-07-12T07:59:25;101592.97;;;23.38
72278;BMP280;61204;49.980;8.358;2022-07-12T08:01:51;101579.75;;;23.41
72278;BMP280;61204;49.980;8.358;2022-07-12T08:04:21;101584.81;;;23.44
72278;BMP280;61204;49.980;8.358;2022-07-12T08:06:48;101581.34;;;23.46
72278;BMP280;61204;49.980;8.358;2022-07-12T08:09:17;101580.59;;;23.45
72278;BMP280;61204;49.980;8.358;2022-07-12T08:11:43;101566.50;;;23.41
72278;BMP280;61204;49.980;8.358;2022-07-12T08:14:09;101562.97;;;23.41
72278;BMP280;61204;49.980;8.358;2022-07-12T08:16:36;101566.56;;;23.43
72278;BMP280;61204;49.980;8.358;2022-07-12T08:19:03;101558.91;;;23.44
72278;BMP280;61204;49.980;8.358;2022-07-12T08:21:31;101554.69;;;23.45
72278;BMP280;61204;49.980;8.358;2022-07-12T08:23:57;101548.41;;;23.44
72278;BMP280;61204;49.980;8.358;2022-07-12T08:26:23;101548.47;;;23.46
72278;BMP280;61204;49.980;8.358;2022-07-12T08:28:48;101542.28;;;23.50
72278;BMP280;61204;49.980;8.358;2022-07-12T08:31:14;101546.50;;;23.51
72278;BMP280;61204;49.980;8.358;2022-07-12T08:33:40;101552.13;;;23.51
72278;BMP280;61204;49.980;8.358;2022-07-12T08:36:07;101553.50;;;23.52
72278;BMP280;61204;49.980;8.358;2022-07-12T08:38:35;101552.88;;;23.54
72278;BMP280;61204;49.980;8.358;2022-07-12T08:41:06;101549.47;;;23.57
72278;BMP280;61204;49.980;8.358;2022-07-12T08:43:35;101560.63;;;23.55
72278;BMP280;61204;49.980;8.358;2022-07-12T08:46:06;101560.75;;;23.59
72278;BMP280;61204;49.980;8.358;2022-07-12T08:48:37;101581.97;;;23.66
72278;BMP280;61204;49.980;8.358;2022-07-12T08:51:10;101581.41;;;23.72
72278;BMP280;61204;49.980;8.358;2022-07-12T08:53:44;101577.38;;;23.77
72278;BMP280;61204;49.980;8.358;2022-07-12T08:56:30;101582.38;;;23.80
72278;BMP280;61204;49.980;8.358;2022-07-12T09:01:48;101571.22;;;23.82
72278;BMP280;61204;49.980;8.358;2022-07-12T09:04:26;101581.78;;;23.84
72278;BMP280;61204;49.980;8.358;2022-07-12T09:06:55;101579.69;;;23.85
72278;BMP280;61204;49.980;8.358;2022-07-12T09:11:52;101563.63;;;23.87
72278;BMP280;61204;49.980;8.358;2022-07-12T09:14:19;101565.72;;;23.87
72278;BMP280;61204;49.980;8.358;2022-07-12T09:17:02;101561.50;;;23.86
72278;BMP280;61204;49.980;8.358;2022-07-12T09:19:40;101565.72;;;23.87
72278;BMP280;61204;49.980;8.358;2022-07-12T09:22:23;101555.19;;;23.85
72278;BMP280;61204;49.980;8.358;2022-07-12T09:24:49;101564.28;;;23.86
72278;BMP280;61204;49.980;8.358;2022-07-12T09:27:15;101558.69;;;23.86
72278;BMP280;61204;49.980;8.358;2022-07-12T09:29:47;101555.91;;;23.86
72278;BMP280;61204;49.980;8.358;2022-07-12T09:32:14;101555.25;;;23.87
72278;BMP280;61204;49.980;8.358;2022-07-12T09:34:59;101556.59;;;23.86
72278;BMP280;61204;49.980;8.358;2022-07-12T09:37:44;101558.81;;;23.90
72278;BMP280;61204;49.980;8.358;2022-07-12T09:40:10;101557.44;;;23.91
72278;BMP280;61204;49.980;8.358;2022-07-12T09:42:36;101558.22;;;23.93
72278;BMP280;61204;49.980;8.358;2022-07-12T09:45:07;101554.69;;;23.93
72278;BMP280;61204;49.980;8.358;2022-07-12T09:47:37;101556.22;;;23.96
72278;BMP280;61204;49.980;8.358;2022-07-12T09:50:04;101554.81;;;23.97
72278;BMP280;61204;49.980;8.358;2022-07-12T09:52:35;101554.91;;;23.99
72278;BMP280;61204;49.980;8.358;2022-07-12T09:55:05;101559.09;;;24.00
72278;BMP280;61204;49.980;8.358;2022-07-12T09:57:39;101552.13;;;24.01
72278;BMP280;61204;49.980;8.358;2022-07-12T10:00:07;101546.53;;;24.01
72278;BMP280;61204;49.980;8.358;2022-07-12T10:02:37;101552.91;;;24.03
72278;BMP280;61204;49.980;8.358;2022-07-12T10:05:05;101557.13;;;24.04
72278;BMP280;61204;49.980;8.358;2022-07-12T10:07:36;101557.22;;;24.06
72278;BMP280;61204;49.980;8.358;2022-07-12T10:10:03;101552.34;;;24.09
72278;BMP280;61204;49.980;8.358;2022-07-12T10:12:31;101545.25;;;24.06
72278;BMP280;61204;49.980;8.358;2022-07-12T10:15:02;101553.72;;;24.08
72278;BMP280;61204;49.980;8.358;2022-07-12T10:17:34;101543.94;;;24.09
72278;BMP280;61204;49.980;8.358;2022-07-12T10:20:19;101548.16;;;24.10
72278;BMP280;61204;49.980;8.358;2022-07-12T10:22:48;101546.13;;;24.12
72278;BMP280;61204;49.980;8.358;2022-07-12T10:25:36;101543.34;;;24.12
72278;BMP280;61204;49.980;8.358;2022-07-12T10:28:02;101554.53;;;24.12
72278;BMP280;61204;49.980;8.358;2022-07-12T10:30:29;101551.81;;;24.14
72278;BMP280;61204;49.980;8.358;2022-07-12T10:32:57;101549.72;;;24.15
72278;BMP280;61204;49.980;8.358;2022-07-12T10:35:29;101556.09;;;24.18
72278;BMP280;61204;49.980;8.358;2022-07-12T10:40:38;101556.16;;;24.20
72278;BMP280;61204;49.980;8.358;2022-07-12T10:45:41;101560.38;;;24.21
72278;BMP280;61204;49.980;8.358;2022-07-12T10:53:30;101555.66;;;24.27
72278;BMP280;61204;49.980;8.358;2022-07-12T10:56:09;101551.47;;;24.28
72278;BMP280;61204;49.980;8.358;2022-07-12T10:58:53;101553.50;;;24.26
72278;BMP280;61204;49.980;8.358;2022-07-12T11:01:28;101552.13;;;24.27
72278;BMP280;61204;49.980;8.358;2022-07-12T11:04:05;101543.06;;;24.28
72278;BMP280;61204;49.980;8.358;2022-07-12T11:06:36;101550.75;;;24.28
72278;BMP280;61204;49.980;8.358;2022-07-12T11:09:08;101543.75;;;24.29
72278;BMP280;61204;49.980;8.358;2022-07-12T11:14:23;101527.72;;;24.31
72278;BMP280;61204;49.980;8.358;2022-07-12T11:16:51;101523.59;;;24.34
72278;BMP280;61204;49.980;8.358;2022-07-12T11:19:22;101520.09;;;24.34
72278;BMP280;61204;49.980;8.358;2022-07-12T11:21:51;101532.03;;;24.36
72278;BMP280;61204;49.980;8.358;2022-07-12T11:24:24;101525.00;;;24.35
72278;BMP280;61204;49.980;8.358;2022-07-12T11:26:53;101530.69;;;24.37
72278;BMP280;61204;49.980;8.358;2022-07-12T11:29:20;101533.50;;;24.37
72278;BMP280;61204;49.980;8.358;2022-07-12T11:31:47;101533.50;;;24.37
72278;BMP280;61204;49.980;8.358;2022-07-12T11:34:25;101529.31;;;24.38
72278;BMP280;61204;49.980;8.358;2022-07-12T11:36:59;101519.47;;;24.37
72278;BMP280;61204;49.980;8.358;2022-07-12T11:39:36;101513.28;;;24.43
72278;BMP280;61204;49.980;8.358;2022-07-12T11:42:05;101511.31;;;24.47
72278;BMP280;61204;49.980;8.358;2022-07-12T11:44:45;101511.44;;;24.52
72278;BMP280;61204;49.980;8.358;2022-07-12T11:47:15;101498.88;;;24.55
72278;BMP280;61204;49.980;8.358;2022-07-12T11:49:50;101505.25;;;24.57
72278;BMP280;61204;49.980;8.358;2022-07-12T11:52:22;101489.13;;;24.58
72278;BMP280;61204;49.980;8.358;2022-07-12T11:54:50;101487.03;;;24.58
72278;BMP280;61204;49.980;8.358;2022-07-12T11:57:22;101494.81;;;24.60
72278;BMP280;61204;49.980;8.358;2022-07-12T11:59:48;101487.81;;;24.61
72278;BMP280;61204;49.980;8.358;2022-07-12T12:02:15;101487.13;;;24.62
72278;BMP280;61204;49.980;8.358;2022-07-12T12:07:23;101477.38;;;24.63
72278;BMP280;61204;49.980;8.358;2022-07-12T12:10:14;101484.44;;;24.66
72278;BMP280;61204;49.980;8.358;2022-07-12T12:12:48;101487.25;;;24.66
72278;BMP280;61204;49.980;8.358;2022-07-12T12:20:28;101476.16;;;24.70
72278;BMP280;61204;49.980;8.358;2022-07-12T12:23:01;101478.22;;;24.70
72278;BMP280;61204;49.980;8.358;2022-07-12T12:25:39;101470.53;;;24.70
72278;BMP280;61204;49.980;8.358;2022-07-12T12:28:06;101464.22;;;24.72
72278;BMP280;61204;49.980;8.358;2022-07-12T12:30:34;101464.22;;;24.72
72278;BMP280;61204;49.980;8.358;2022-07-12T12:33:12;101459.31;;;24.70
72278;BMP280;61204;49.980;8.358;2022-07-12T12:35:38;101464.19;;;24.70
72278;BMP280;61204;49.980;8.358;2022-07-12T12:38:12;101457.88;;;24.69
72278;BMP280;61204;49.980;8.358;2022-07-12T12:40:49;101455.06;;;24.69
72278;BMP280;61204;49.980;8.358;2022-07-12T12:43:20;101449.41;;;24.67
72278;BMP280;61204;49.980;8.358;2022-07-12T12:45:54;101469.78;;;24.70
72278;BMP280;61204;49.980;8.358;2022-07-12T12:48:29;101457.19;;;24.71
72278;BMP280;61204;49.980;8.358;2022-07-12T12:53:41;101446.16;;;24.79
72278;BMP280;61204;49.980;8.358;2022-07-12T12:56:11;101449.72;;;24.81
72278;BMP280;61204;49.980;8.358;2022-07-12T12:58:40;101442.75;;;24.83
72278;BMP280;61204;49.980;8.358;2022-07-12T13:01:07;101444.84;;;24.82
72278;BMP280;61204;49.980;8.358;2022-07-12T13:03:34;101441.97;;;24.80
72278;BMP280;61204;49.980;8.358;2022-07-12T13:06:01;101442.59;;;24.76
72278;BMP280;61204;49.980;8.358;2022-07-12T13:08:27;101439.81;;;24.76
72278;BMP280;61204;49.980;8.358;2022-07-12T13:10:53;101450.31;;;24.76
72278;BMP280;61204;49.980;8.358;2022-07-12T13:13:39;101435.63;;;24.77
72278;BMP280;61204;49.980;8.358;2022-07-12T13:16:05;101444.75;;;24.78
72278;BMP280;61204;49.980;8.358;2022-07-12T13:18:32;101444.03;;;24.77
72278;BMP280;61204;49.980;8.358;2022-07-12T13:20:58;101441.28;;;24.79
72278;BMP280;61204;49.980;8.358;2022-07-12T13:23:24;101439.22;;;24.82
72278;BMP280;61204;49.980;8.358;2022-07-12T13:25:49;101439.91;;;24.80
72278;BMP280;61204;49.980;8.358;2022-07-12T13:28:15;101434.38;;;24.85
72278;BMP280;61204;49.980;8.358;2022-07-12T13:30:41;101435.19;;;24.89
72278;BMP280;61204;49.980;8.358;2022-07-12T13:33:06;101425.41;;;24.92
72278;BMP280;61204;49.980;8.358;2022-07-12T13:35:32;101418.44;;;24.93
72278;BMP280;61204;49.980;8.358;2022-07-12T13:37:58;101421.34;;;24.97
72278;BMP280;61204;49.980;8.358;2022-07-12T13:40:23;101414.34;;;25.00
72278;BMP280;61204;49.980;8.358;2022-07-12T13:42:52;101421.41;;;25.01
72278;BMP280;61204;49.980;8.358;2022-07-12T13:45:21;101407.41;;;25.03
72278;BMP280;61204;49.980;8.358;2022-07-12T13:47:50;101407.50;;;25.07
72278;BMP280;61204;49.980;8.358;2022-07-12T13:50:20;101412.47;;;25.11
72278;BMP280;61204;49.980;8.358;2022-07-12T13:52:48;101407.53;;;25.09
72278;BMP280;61204;49.980;8.358;2022-07-12T13:55:16;101404.03;;;25.09
72278;BMP280;61204;49.980;8.358;2022-07-12T13:57:44;101410.34;;;25.09
72278;BMP280;61204;49.980;8.358;2022-07-12T14:00:13;101405.44;;;25.10
72278;BMP280;61204;49.980;8.358;2022-07-12T14:02:44;101409.00;;;25.12
72278;BMP280;61204;49.980;8.358;2022-07-12T14:05:13;101404.88;;;25.16
72278;BMP280;61204;49.980;8.358;2022-07-12T14:07:41;101406.94;;;25.15
72278;BMP280;61204;49.980;8.358;2022-07-12T14:10:09;101400.66;;;25.17
72278;BMP280;61204;49.980;8.358;2022-07-12T14:12:35;101406.31;;;25.19
72278;BMP280;61204;49.980;8.358;2022-07-12T14:15:01;101399.34;;;25.20
72278;BMP280;61204;49.980;8.358;2022-07-12T14:20:18;101407.00;;;25.17
72278;BMP280;61204;49.980;8.358;2022-07-12T14:22:47;101404.19;;;25.17
72278;BMP280;61204;49.980;8.358;2022-07-12T14:25:14;101400.72;;;25.19
72278;BMP280;61204;49.980;8.358;2022-07-12T14:27:41;101396.59;;;25.24
72278;BMP280;61204;49.980;8.358;2022-07-12T14:30:12;101395.97;;;25.27
72278;BMP280;61204;49.980;8.358;2022-07-12T14:32:39;101396.69;;;25.28
72278;BMP280;61204;49.980;8.358;2022-07-12T14:35:07;101400.13;;;25.26